createdAt,value
2022-07-25T00:00:44.241Z,61.0
2022-07-25T00:03:14.955Z,61.0
2022-07-25T00:05:41.379Z,61.0
2022-07-25T00:10:52.141Z,61.0
2022-07-25T00:13:22.732Z,61.0
2022-07-25T00:15:53.490Z,61.0
2022-07-25T00:18:24.236Z,61.0
2022-07-25T00:21:04.871Z,61.0
2022-07-25T00:23:35.681Z,61.0
2022-07-25T00:26:06.269Z,61.0
2022-07-25T00:28:36.865Z,61.0
2022-07-25T00:31:07.625Z,61.0
2022-07-25T00:33:38.408Z,61.0
2022-07-25T00:36:19.027Z,62.0
2022-07-25T00:38:49.618Z,62.0
2022-07-25T00:41:20.218Z,62.0
2022-07-25T00:43:50.823Z,62.0
2022-07-25T00:46:22.578Z,62.0
2022-07-25T00:51:34.887Z,63.0
2022-07-25T00:54:05.867Z,63.0
2022-07-25T00:56:36.726Z,63.0
2022-07-25T00:59:07.324Z,63.0
2022-07-25T01:01:38.026Z,63.0
2022-07-25T01:04:10.400Z,63.0
2022-07-25T01:06:51.038Z,63.0
2022-07-25T01:09:21.656Z,64.0
2022-07-25T01:11:52.248Z,64.0
2022-07-25T01:14:22.852Z,65.0
2022-07-25T01:16:53.463Z,66.0
2022-07-25T01:19:34.080Z,66.0
2022-07-25T01:22:04.694Z,67.0
2022-07-25T01:24:35.279Z,67.0
2022-07-25T01:27:05.866Z,68.0
2022-07-25T01:32:08.163Z,68.0
2022-07-25T01:34:48.774Z,68.0
2022-07-25T01:37:19.410Z,68.0
2022-07-25T01:39:50.014Z,68.0
2022-07-25T01:42:20.691Z,69.0
2022-07-25T01:44:51.718Z,69.0
2022-07-25T01:47:22.326Z,69.0
2022-07-25T01:50:02.932Z,69.0
2022-07-25T01:52:33.532Z,69.0
2022-07-25T01:55:04.945Z,69.0
2022-07-25T01:57:41.298Z,69.0
2022-07-25T02:00:10.219Z,69.0
2022-07-25T02:02:40.853Z,69.0
2022-07-25T02:05:21.622Z,69.0
2022-07-25T02:07:52.262Z,69.0
2022-07-25T02:12:53.014Z,68.0
2022-07-25T02:18:03.789Z,70.0
2022-07-25T02:20:34.400Z,71.0
2022-07-25T02:23:05.020Z,71.0
2022-07-25T02:25:35.624Z,71.0
2022-07-25T02:28:06.207Z,72.0
2022-07-25T02:30:36.899Z,72.0
2022-07-25T02:33:17.573Z,72.0
2022-07-25T02:35:48.170Z,72.0
2022-07-25T02:38:18.787Z,72.0
2022-07-25T02:40:49.399Z,72.0
2022-07-25T02:43:20.021Z,72.0
2022-07-25T02:45:50.660Z,72.0
2022-07-25T02:48:31.414Z,72.0
2022-07-25T02:53:58.632Z,72.0
2022-07-25T02:56:10.463Z,72.0
2022-07-25T02:58:31.720Z,72.0
2022-07-25T03:01:12.451Z,72.0
2022-07-25T03:03:43.737Z,72.0
2022-07-25T03:06:14.423Z,72.0
2022-07-25T03:08:45.051Z,71.0
2022-07-25T03:11:15.649Z,71.0
2022-07-25T03:13:46.577Z,72.0
2022-07-25T03:16:27.331Z,72.0
2022-07-25T03:18:58.003Z,72.0
2022-07-25T03:21:28.635Z,72.0
2022-07-25T03:24:02.871Z,72.0
2022-07-25T03:26:35.198Z,72.0
2022-07-25T03:29:05.784Z,72.0
2022-07-25T03:34:16.917Z,72.0
2022-07-25T03:36:47.544Z,72.0
2022-07-25T03:39:18.125Z,72.0
2022-07-25T03:41:48.732Z,72.0
2022-07-25T03:44:20.129Z,72.0
2022-07-25T03:47:00.740Z,72.0
2022-07-25T03:49:30.724Z,72.0
2022-07-25T03:52:01.358Z,72.0
2022-07-25T03:54:31.975Z,73.0
2022-07-25T03:57:02.574Z,73.0
2022-07-25T03:59:43.177Z,73.0
2022-07-25T04:02:13.872Z,72.0
2022-07-25T04:04:44.553Z,72.0
2022-07-25T04:07:15.201Z,72.0
2022-07-25T04:09:45.805Z,72.0
2022-07-25T04:14:56.572Z,72.0
2022-07-25T04:17:27.426Z,72.0
2022-07-25T04:20:00.220Z,72.0
2022-07-25T04:22:30.869Z,72.0
2022-07-25T04:24:57.027Z,72.0
2022-07-25T04:27:27.595Z,72.0
2022-07-25T04:30:08.229Z,72.0
2022-07-25T04:32:45.065Z,72.0
2022-07-25T04:35:15.689Z,72.0
2022-07-25T04:37:46.294Z,72.0
2022-07-25T04:40:16.897Z,72.0
2022-07-25T04:42:47.515Z,71.0
2022-07-25T04:45:28.215Z,71.0
2022-07-25T04:47:58.967Z,70.0
2022-07-25T04:50:34.951Z,69.0
2022-07-25T04:55:25.679Z,68.0
2022-07-25T04:58:06.303Z,68.0
2022-07-25T05:00:46.995Z,68.0
2022-07-25T05:03:17.687Z,67.0
2022-07-25T05:05:48.305Z,67.0
2022-07-25T05:08:18.911Z,65.0
2022-07-25T05:10:49.489Z,65.0
2022-07-25T05:16:00.329Z,63.0
2022-07-25T05:18:31.033Z,62.0
2022-07-25T05:21:01.634Z,61.0
2022-07-25T05:23:32.259Z,61.0
2022-07-25T05:26:02.870Z,60.0
2022-07-25T05:28:43.480Z,60.0
2022-07-25T05:31:14.372Z,60.0
2022-07-25T05:36:15.195Z,59.0
2022-07-25T05:38:45.789Z,59.0
2022-07-25T05:41:16.433Z,59.0
2022-07-25T05:43:57.072Z,59.0
2022-07-25T05:46:28.404Z,59.0
2022-07-25T05:48:59.256Z,58.0
2022-07-25T05:51:30.079Z,58.0
2022-07-25T05:54:00.645Z,58.0
2022-07-25T05:56:41.265Z,58.0
2022-07-25T05:59:12.591Z,57.0
2022-07-25T06:01:43.483Z,57.0
2022-07-25T06:04:14.804Z,57.0
2022-07-25T06:06:37.780Z,57.0
2022-07-25T06:09:08.367Z,57.0
2022-07-25T06:12:08.299Z,57.0
2022-07-25T06:16:59.195Z,56.0
2022-07-25T06:19:29.807Z,56.0
2022-07-25T06:22:00.453Z,56.0
2022-07-25T06:24:31.032Z,55.0
2022-07-25T06:27:11.633Z,54.0
2022-07-25T06:29:36.818Z,54.0
2022-07-25T06:32:07.564Z,54.0
2022-07-25T06:34:39.103Z,54.0
2022-07-25T06:37:09.701Z,53.0
2022-07-25T06:39:55.435Z,53.0
2022-07-25T06:42:26.638Z,53.0
2022-07-25T06:44:57.358Z,53.0
2022-07-25T06:47:29.802Z,54.0
2022-07-25T06:49:51.267Z,53.0
2022-07-25T06:52:21.879Z,53.0
2022-07-25T06:57:32.653Z,54.0
2022-07-25T07:00:03.248Z,53.0
2022-07-25T07:02:33.869Z,53.0
2022-07-25T07:05:04.470Z,52.0
2022-07-25T07:07:35.781Z,52.0
2022-07-25T07:10:18.734Z,52.0
2022-07-25T07:12:49.797Z,52.0
2022-07-25T07:15:20.582Z,52.0
2022-07-25T07:17:51.192Z,52.0
2022-07-25T07:20:21.877Z,52.0
2022-07-25T07:22:52.488Z,52.0
2022-07-25T07:25:33.115Z,52.0
2022-07-25T07:28:03.786Z,51.0
2022-07-25T07:30:58.935Z,51.0
2022-07-25T07:33:04.091Z,51.0
2022-07-25T07:38:14.860Z,52.0
2022-07-25T07:40:45.494Z,51.0
2022-07-25T07:43:16.107Z,51.0
2022-07-25T07:45:50.518Z,50.0
2022-07-25T07:48:21.967Z,50.0
2022-07-25T07:50:52.704Z,50.0
2022-07-25T07:53:33.333Z,50.0
2022-07-25T07:56:03.948Z,50.0
2022-07-25T07:58:34.541Z,51.0
2022-07-25T08:01:05.126Z,51.0
2022-07-25T08:03:35.840Z,50.0
2022-07-25T08:06:06.458Z,50.0
2022-07-25T08:08:47.124Z,51.0
2022-07-25T08:11:17.752Z,50.0
2022-07-25T08:13:50.014Z,49.0
2022-07-25T08:18:50.766Z,50.0
2022-07-25T08:21:21.389Z,49.0
2022-07-25T08:24:02.010Z,49.0
2022-07-25T08:26:32.619Z,49.0
2022-07-25T08:29:28.289Z,49.0
2022-07-25T08:31:39.134Z,48.0
2022-07-25T08:34:10.292Z,48.0
2022-07-25T08:36:51.682Z,48.0
2022-07-25T08:39:22.276Z,48.0
2022-07-25T08:41:52.868Z,48.0
2022-07-25T08:44:18.709Z,50.0
2022-07-25T08:46:49.579Z,49.0
2022-07-25T08:49:20.485Z,48.0
2022-07-25T08:52:01.781Z,48.0
2022-07-25T08:54:33.062Z,48.0
2022-07-25T08:59:34.919Z,48.0
2022-07-25T09:02:05.633Z,47.0
2022-07-25T09:04:36.407Z,47.0
2022-07-25T09:07:18.567Z,47.0
2022-07-25T09:09:49.247Z,47.0
2022-07-25T09:12:22.822Z,47.0
2022-07-25T09:14:51.257Z,46.0
2022-07-25T09:17:33.578Z,46.0
2022-07-25T09:19:44.526Z,46.0
2022-07-25T09:22:35.157Z,46.0
2022-07-25T09:25:05.765Z,46.0
2022-07-25T09:27:28.567Z,46.0
2022-07-25T09:29:59.193Z,48.0
2022-07-25T09:32:29.835Z,46.0
2022-07-25T09:35:10.473Z,46.0
2022-07-25T09:40:11.219Z,47.0
2022-07-25T09:42:41.833Z,47.0
2022-07-25T09:45:12.464Z,47.0
2022-07-25T09:47:43.077Z,47.0
2022-07-25T09:50:23.828Z,47.0
2022-07-25T09:53:04.443Z,48.0
2022-07-25T09:55:35.066Z,47.0
2022-07-25T09:58:05.704Z,47.0
2022-07-25T10:00:36.298Z,46.0
2022-07-25T10:03:06.980Z,45.0
2022-07-25T10:05:47.644Z,46.0
2022-07-25T10:08:18.247Z,46.0
2022-07-25T10:10:48.847Z,47.0
2022-07-25T10:13:21.002Z,45.0
2022-07-25T10:15:41.613Z,46.0
2022-07-25T10:21:09.777Z,46.0
2022-07-25T10:23:29.246Z,46.0
2022-07-25T10:25:59.859Z,44.0
2022-07-25T10:28:30.436Z,43.0
2022-07-25T10:31:01.156Z,44.0
2022-07-25T10:33:41.868Z,44.0
2022-07-25T10:36:12.544Z,43.0
2022-07-25T10:38:43.138Z,43.0
2022-07-25T10:41:13.762Z,43.0
2022-07-25T10:43:48.245Z,42.0
2022-07-25T10:46:19.285Z,42.0
2022-07-25T10:49:00.244Z,43.0
2022-07-25T10:51:31.489Z,43.0
2022-07-25T10:53:52.673Z,43.0
2022-07-25T10:56:33.284Z,42.0
2022-07-25T11:01:34.205Z,42.0
2022-07-25T11:04:15.013Z,41.0
2022-07-25T11:06:45.614Z,40.0
2022-07-25T11:09:18.694Z,38.0
2022-07-25T11:11:40.547Z,40.0
2022-07-25T11:14:11.170Z,40.0
2022-07-25T11:16:41.919Z,41.0
2022-07-25T11:19:22.711Z,41.0
2022-07-25T11:21:53.334Z,41.0
2022-07-25T11:24:23.924Z,41.0
2022-07-25T11:26:54.532Z,41.0
2022-07-25T11:29:30.301Z,41.0
2022-07-25T11:32:11.261Z,41.0
2022-07-25T11:34:43.961Z,41.0
2022-07-25T11:37:14.878Z,41.0
2022-07-25T11:42:15.656Z,40.0
2022-07-25T11:44:47.925Z,41.0
2022-07-25T11:47:18.619Z,41.0
2022-07-25T11:49:59.264Z,40.0
2022-07-25T11:52:29.893Z,41.0
2022-07-25T11:55:00.523Z,38.0
2022-07-25T11:57:31.129Z,39.0
2022-07-25T12:00:01.753Z,37.0
2022-07-25T12:02:42.684Z,36.0
2022-07-25T12:05:13.560Z,37.0
2022-07-25T12:07:44.185Z,36.0
2022-07-25T12:10:14.877Z,35.0
2022-07-25T12:12:45.587Z,35.0
2022-07-25T12:15:26.259Z,35.0
2022-07-25T12:17:56.871Z,34.0
2022-07-25T12:22:57.755Z,35.0
2022-07-25T12:25:30.939Z,34.0
2022-07-25T12:27:51.742Z,35.0
2022-07-25T12:30:32.406Z,34.0
2022-07-25T12:33:03.486Z,33.0
2022-07-25T12:35:34.093Z,34.0
2022-07-25T12:38:04.954Z,34.0
2022-07-25T12:40:35.554Z,33.0
2022-07-25T12:43:06.161Z,33.0
2022-07-25T12:45:46.940Z,33.0
2022-07-25T12:48:17.640Z,33.0
2022-07-25T12:50:48.259Z,33.0
2022-07-25T12:53:18.881Z,34.0
2022-07-25T12:55:49.474Z,34.0
2022-07-25T12:58:20.078Z,34.0
2022-07-25T13:03:40.850Z,34.0
2022-07-25T13:06:11.513Z,34.0
2022-07-25T13:08:42.145Z,33.0
2022-07-25T13:11:12.760Z,33.0
2022-07-25T13:13:53.352Z,33.0
2022-07-25T13:16:24.030Z,34.0
2022-07-25T13:18:54.783Z,33.0
2022-07-25T13:21:25.824Z,33.0
2022-07-25T13:23:56.437Z,33.0
2022-07-25T13:26:27.022Z,33.0
2022-07-25T13:29:10.546Z,33.0
2022-07-25T13:31:34.588Z,32.0
2022-07-25T13:34:06.129Z,32.0
2022-07-25T13:39:07.235Z,31.0
2022-07-25T13:44:18.299Z,31.0
2022-07-25T13:46:48.914Z,31.0
2022-07-25T13:49:20.595Z,31.0
2022-07-25T13:51:51.274Z,31.0
2022-07-25T13:54:21.861Z,30.0
2022-07-25T13:57:02.487Z,31.0
2022-07-25T13:59:33.104Z,31.0
2022-07-25T14:02:03.778Z,31.0
2022-07-25T14:04:34.490Z,31.0
2022-07-25T14:07:05.126Z,31.0
2022-07-25T14:09:35.770Z,32.0
2022-07-25T14:12:16.367Z,32.0
2022-07-25T14:14:46.960Z,33.0
2022-07-25T14:17:17.691Z,32.0
2022-07-25T14:19:51.028Z,32.0
2022-07-25T14:24:51.801Z,30.0
2022-07-25T14:27:32.396Z,30.0
2022-07-25T14:30:02.979Z,26.0
2022-07-25T14:32:33.601Z,26.0
2022-07-25T14:35:04.221Z,26.0
2022-07-25T14:37:34.843Z,25.0
2022-07-25T14:40:05.440Z,26.0
2022-07-25T14:42:47.007Z,25.0
2022-07-25T14:45:18.195Z,25.0
2022-07-25T14:47:48.797Z,25.0
2022-07-25T14:50:19.394Z,26.0
2022-07-25T14:52:50.003Z,25.0
2022-07-25T14:55:30.620Z,25.0
2022-07-25T14:58:01.231Z,25.0
2022-07-25T15:00:36.420Z,26.0
2022-07-25T15:05:37.260Z,26.0
2022-07-25T15:08:07.860Z,26.0
2022-07-25T15:10:48.495Z,26.0
2022-07-25T15:13:40.155Z,25.0
2022-07-25T15:15:50.868Z,25.0
2022-07-25T15:18:24.230Z,26.0
2022-07-25T15:20:48.866Z,26.0
2022-07-25T15:23:19.504Z,27.0
2022-07-25T15:26:13.347Z,27.0
2022-07-25T15:28:33.932Z,28.0
2022-07-25T15:31:04.616Z,28.0
2022-07-25T15:33:35.372Z,28.0
2022-07-25T15:36:06.061Z,28.0
2022-07-25T15:38:36.672Z,28.0
2022-07-25T15:41:17.295Z,28.0
2022-07-25T15:46:18.997Z,29.0
2022-07-25T15:48:49.976Z,29.0
2022-07-25T15:51:20.713Z,31.0
2022-07-25T15:53:51.286Z,30.0
2022-07-25T15:56:31.922Z,31.0
2022-07-25T15:59:02.565Z,32.0
2022-07-25T16:01:33.297Z,32.0
2022-07-25T16:04:04.068Z,32.0
2022-07-25T16:06:34.840Z,32.0
2022-07-25T16:09:15.949Z,32.0
2022-07-25T16:11:46.575Z,33.0
2022-07-25T16:14:17.184Z,33.0
2022-07-25T16:16:47.969Z,33.0
2022-07-25T16:19:19.293Z,34.0
2022-07-25T16:27:00.211Z,34.0
2022-07-25T16:29:31.297Z,34.0
2022-07-25T16:32:02.462Z,34.0
2022-07-25T16:34:39.107Z,34.0
2022-07-25T16:36:59.715Z,35.0
2022-07-25T16:39:40.314Z,35.0
2022-07-25T16:42:10.932Z,35.0
2022-07-25T16:44:41.543Z,37.0
2022-07-25T16:47:12.318Z,41.0
2022-07-25T16:49:42.937Z,49.0
2022-07-25T16:52:14.360Z,54.0
2022-07-25T16:54:55.044Z,58.0
2022-07-25T16:57:25.654Z,63.0
2022-07-25T16:59:56.260Z,66.0
2022-07-25T17:02:29.626Z,68.0
2022-07-25T17:07:30.682Z,71.0
2022-07-25T17:10:11.283Z,72.0
2022-07-25T17:12:41.892Z,72.0
2022-07-25T17:15:12.540Z,72.0
2022-07-25T17:17:43.152Z,72.0
2022-07-25T17:20:13.772Z,72.0
2022-07-25T17:22:54.404Z,71.0
2022-07-25T17:25:25.038Z,71.0
2022-07-25T17:27:55.635Z,71.0
2022-07-25T17:30:26.255Z,71.0
2022-07-25T17:32:56.879Z,71.0
2022-07-25T17:35:27.485Z,71.0
2022-07-25T17:38:08.090Z,71.0
2022-07-25T17:40:36.719Z,71.0
2022-07-25T17:43:07.308Z,70.0
2022-07-25T17:48:08.057Z,70.0
2022-07-25T17:50:39.590Z,69.0
2022-07-25T17:53:20.213Z,70.0
2022-07-25T17:55:50.814Z,69.0
2022-07-25T17:58:21.431Z,70.0
2022-07-25T18:00:52.046Z,71.0
2022-07-25T18:03:26.369Z,71.0
2022-07-25T18:05:56.972Z,72.0
2022-07-25T18:08:37.599Z,72.0
2022-07-25T18:11:08.217Z,73.0
2022-07-25T18:13:38.840Z,73.0
2022-07-25T18:16:09.617Z,72.0
2022-07-25T18:18:40.319Z,72.0
2022-07-25T18:21:10.947Z,73.0
2022-07-25T18:23:51.587Z,73.0
2022-07-25T18:28:52.346Z,74.0
2022-07-25T18:31:23.076Z,74.0
2022-07-25T18:33:53.867Z,74.0
2022-07-25T18:36:34.922Z,75.0
2022-07-25T18:39:05.522Z,75.0
2022-07-25T18:41:39.813Z,75.0
2022-07-25T18:44:11.873Z,75.0
2022-07-25T18:46:43.109Z,75.0
2022-07-25T18:49:15.220Z,75.0
2022-07-25T18:51:56.026Z,76.0
2022-07-25T18:54:26.652Z,76.0
2022-07-25T18:56:48.529Z,76.0
2022-07-25T18:59:29.143Z,76.0
2022-07-25T19:01:59.866Z,77.0
2022-07-25T19:04:30.612Z,77.0
2022-07-25T19:09:41.402Z,77.0
2022-07-25T19:14:42.135Z,78.0
2022-07-25T19:17:12.721Z,78.0
2022-07-25T19:19:53.340Z,78.0
2022-07-25T19:22:23.969Z,78.0
2022-07-25T19:24:54.586Z,78.0
2022-07-25T19:27:25.154Z,78.0
2022-07-25T19:32:27.595Z,78.0
2022-07-25T19:35:08.221Z,78.0
2022-07-25T19:37:36.080Z,78.0
2022-07-25T19:40:06.689Z,78.0
2022-07-25T19:42:37.306Z,78.0
2022-07-25T19:45:07.919Z,79.0
2022-07-25T19:50:18.670Z,79.0
2022-07-25T19:52:49.270Z,79.0
2022-07-25T19:55:19.872Z,79.0
2022-07-25T19:57:50.470Z,79.0
2022-07-25T20:00:21.078Z,79.0
2022-07-25T20:03:01.851Z,79.0
2022-07-25T20:05:32.645Z,79.0
2022-07-25T20:08:03.305Z,80.0
2022-07-25T20:10:33.911Z,80.0
2022-07-25T20:13:11.032Z,80.0
2022-07-25T20:15:31.621Z,80.0
2022-07-25T20:18:27.620Z,80.0
2022-07-25T20:20:48.334Z,80.0
2022-07-25T20:23:18.957Z,80.0
2022-07-25T20:25:49.569Z,80.0
2022-07-25T20:30:50.472Z,80.0
2022-07-25T20:33:31.192Z,80.0
2022-07-25T20:36:01.816Z,80.0
2022-07-25T20:38:32.437Z,80.0
2022-07-25T20:41:05.345Z,80.0
2022-07-25T20:43:37.336Z,81.0
2022-07-25T20:46:09.475Z,80.0
2022-07-25T20:48:50.385Z,81.0
2022-07-25T20:51:21.101Z,80.0
2022-07-25T20:53:53.284Z,80.0
2022-07-25T20:56:14.352Z,80.0
2022-07-25T20:58:45.463Z,80.0
2022-07-25T21:01:26.284Z,79.0
2022-07-25T21:03:57.076Z,79.0
2022-07-25T21:06:28.403Z,78.0
2022-07-25T21:13:59.317Z,76.0
2022-07-25T21:16:40.665Z,76.0
2022-07-25T21:19:11.644Z,76.0
2022-07-25T21:21:42.384Z,76.0
2022-07-25T21:24:13.022Z,75.0
2022-07-25T21:26:43.624Z,75.0
2022-07-25T21:29:14.635Z,75.0
2022-07-25T21:31:55.392Z,76.0
2022-07-25T21:34:26.191Z,76.0
2022-07-25T21:36:56.876Z,76.0
2022-07-25T21:39:27.471Z,76.0
2022-07-25T21:42:05.063Z,76.0
2022-07-25T21:44:35.663Z,77.0
2022-07-25T21:47:16.304Z,77.0
2022-07-25T21:54:47.220Z,77.0
2022-07-25T21:57:23.745Z,77.0
2022-07-25T21:59:54.360Z,77.0
2022-07-25T22:02:24.979Z,77.0
2022-07-25T22:04:55.597Z,77.0
2022-07-25T22:07:26.219Z,77.0
2022-07-25T22:09:59.608Z,76.0
2022-07-25T22:12:30.190Z,76.0
2022-07-25T22:15:11.967Z,75.0
2022-07-25T22:17:59.848Z,75.0
2022-07-25T22:20:10.421Z,74.0
2022-07-25T22:22:41.039Z,74.0
2022-07-25T22:25:11.648Z,74.0
2022-07-25T22:27:42.243Z,74.0
2022-07-25T22:32:53.005Z,73.0
2022-07-25T22:35:23.633Z,73.0
2022-07-25T22:37:54.247Z,73.0
2022-07-25T22:40:24.945Z,73.0
2022-07-25T22:43:05.533Z,73.0
2022-07-25T22:45:50.164Z,73.0
2022-07-25T22:48:10.868Z,74.0
2022-07-25T22:50:41.487Z,74.0
2022-07-25T22:53:12.099Z,74.0
2022-07-25T22:55:42.780Z,74.0
2022-07-25T22:58:23.381Z,74.0
2022-07-25T23:00:53.990Z,74.0
2022-07-25T23:03:24.711Z,74.0
2022-07-25T23:06:04.138Z,74.0
2022-07-25T23:08:27.018Z,74.0
2022-07-25T23:16:10.283Z,74.0
2022-07-25T23:18:41.220Z,74.0
2022-07-25T23:21:11.831Z,74.0
2022-07-25T23:23:42.404Z,74.0
2022-07-25T23:26:23.032Z,74.0
2022-07-25T23:28:53.611Z,74.0
2022-07-25T23:31:24.521Z,74.0
2022-07-25T23:33:55.228Z,73.0
2022-07-25T23:36:25.832Z,74.0
2022-07-25T23:38:56.440Z,74.0
2022-07-25T23:41:37.392Z,74.0
2022-07-25T23:44:10.127Z,75.0
2022-07-25T23:46:39.499Z,75.0
2022-07-25T23:49:11.403Z,75.0
2022-07-25T23:54:12.665Z,75.0
2022-07-25T23:56:53.266Z,75.0
2022-07-25T23:59:23.910Z,75.0
